Time,TemperatureF,DewpointF,PressureIn,WindDirection,WindDirectionDegrees,WindSpeedMPH,WindSpeedGustMPH,Humidity,HourlyPrecipIn,Conditions,Clouds,dailyrainin,SolarRadiationWatts/m^2,SoftwareType,DateUTC
2013-10-03 00:00:00,48.6,37.7,29.74,SSW,207,0.0,-999.0,66,0.00,,,0.00,0,Wunderground v.1.15,2013-10-03 06:00:00,
2013-10-03 00:10:00,48.4,37.9,29.74,SSW,207,0.0,-999.0,67,0.00,,,0.00,0,Wunderground v.1.15,2013-10-03 06:10:00,
2013-10-03 00:20:00,48.3,37.8,29.74,SSW,207,0.0,-999.0,67,0.00,,,0.00,0,Wunderground v.1.15,2013-10-03 06:20:00,
2013-10-03 00:25:00,48.1,37.7,29.74,SSW,206,0.0,-999.0,67,0.00,,,0.00,0,Wunderground v.1.15,2013-10-03 06:25:00,
2013-10-03 00:30:00,48.2,38.9,29.73,SSW,206,0.0,-999.0,70,0.00,,,0.00,0,Wunderground v.1.15,2013-10-03 06:30:00,
2013-10-03 00:40:00,47.9,37.5,29.73,SSW,207,0.0,-999.0,67,0.00,,,0.00,0,Wunderground v.1.15,2013-10-03 06:40:00,
2013-10-03 00:50:00,47.6,37.6,29.73,SW,216,0.0,-999.0,68,0.00,,,0.00,0,Wunderground v.1.15,2013-10-03 06:50:00,
2013-10-03 00:55:00,47.6,37.2,29.73,SW,216,0.0,-999.0,67,0.00,,,0.00,0,Wunderground v.1.15,2013-10-03 06:55:00,
2013-10-03 01:05:00,47.6,36.8,29.73,SW,216,0.0,-999.0,66,0.00,,,0.00,0,Wunderground v.1.15,2013-10-03 07:05:00,
2013-10-03 01:10:00,47.6,37.2,29.73,SW,216,0.0,-999.0,67,0.00,,,0.00,0,Wunderground v.1.15,2013-10-03 07:10:00,
2013-10-03 01:15:00,47.5,37.1,29.73,SW,216,0.0,-999.0,67,0.00,,,0.00,0,Wunderground v.1.15,2013-10-03 07:15:00,
2013-10-03 01:20:00,47.6,37.2,29.73,SW,216,0.0,-999.0,67,0.00,,,0.00,0,Wunderground v.1.15,2013-10-03 07:20:00,
2013-10-03 01:30:00,47.4,37.4,29.73,SW,216,0.0,-999.0,68,0.00,,,0.00,0,Wunderground v.1.15,2013-10-03 07:30:00,
2013-10-03 01:40:00,47.2,37.2,29.73,SW,216,0.0,-999.0,68,0.00,,,0.00,0,Wunderground v.1.15,2013-10-03 07:40:00,
2013-10-03 01:45:00,47.4,37.4,29.73,SW,216,0.0,-999.0,68,0.00,,,0.00,0,Wunderground v.1.15,2013-10-03 07:45:00,
2013-10-03 01:55:00,47.0,36.6,29.73,SW,216,0.0,-999.0,67,0.00,,,0.00,0,Wunderground v.1.15,2013-10-03 07:55:00,
2013-10-03 02:05:00,46.7,36.3,29.73,SW,216,0.0,-999.0,67,0.00,,,0.00,0,Wunderground v.1.15,2013-10-03 08:05:00,
2013-10-03 02:10:00,46.7,36.7,29.73,SW,216,0.0,-999.0,68,0.00,,,0.00,0,Wunderground v.1.15,2013-10-03 08:10:00,
2013-10-03 02:20:00,46.5,36.1,29.73,SW,216,0.0,-999.0,67,0.00,,,0.00,0,Wunderground v.1.15,2013-10-03 08:20:00,
2013-10-03 02:30:00,46.7,36.7,29.72,SW,216,0.0,-999.0,68,0.00,,,0.00,0,Wunderground v.1.15,2013-10-03 08:30:00,
2013-10-03 02:35:00,46.6,37.0,29.72,SW,216,0.0,-999.0,69,0.00,,,0.00,0,Wunderground v.1.15,2013-10-03 08:35:00,
2013-10-03 02:45:00,46.3,36.3,29.72,SW,216,0.0,-999.0,68,0.00,,,0.00,0,Wunderground v.1.15,2013-10-03 08:45:00,
2013-10-03 02:50:00,46.2,36.6,29.72,SW,216,0.0,-999.0,69,0.00,,,0.00,0,Wunderground v.1.15,2013-10-03 08:50:00,
2013-10-03 03:00:00,46.3,36.7,29.72,SW,216,0.0,-999.0,69,0.00,,,0.00,0,Wunderground v.1.15,2013-10-03 09:00:00,
2013-10-03 03:10:00,46.1,36.1,29.71,SW,216,0.0,-999.0,68,0.00,,,0.00,0,Wunderground v.1.15,2013-10-03 09:10:00,
2013-10-03 03:15:00,45.8,34.7,29.71,SW,216,0.0,-999.0,65,0.00,,,0.00,0,Wunderground v.1.15,2013-10-03 09:15:00,
2013-10-03 03:25:00,45.9,35.6,29.71,SW,216,0.0,-999.0,67,0.00,,,0.00,0,Wunderground v.1.15,2013-10-03 09:25:00,
2013-10-03 03:30:00,45.8,35.5,29.71,SW,216,0.0,-999.0,67,0.00,,,0.00,0,Wunderground v.1.15,2013-10-03 09:30:00,
2013-10-03 03:40:00,46.0,36.0,29.71,SW,216,0.0,-999.0,68,0.00,,,0.00,0,Wunderground v.1.15,2013-10-03 09:40:00,
2013-10-03 03:45:00,46.1,36.1,29.71,SW,216,0.0,-999.0,68,0.00,,,0.00,0,Wunderground v.1.15,2013-10-03 09:45:00,
2013-10-03 03:55:00,46.2,36.2,29.71,SW,216,0.0,-999.0,68,0.00,,,0.00,0,Wunderground v.1.15,2013-10-03 09:55:00,
2013-10-03 04:05:00,46.2,35.8,29.71,SW,216,0.0,-999.0,67,0.00,,,0.00,0,Wunderground v.1.15,2013-10-03 10:05:00,
2013-10-03 04:10:00,46.3,35.9,29.71,SW,217,0.0,-999.0,67,0.00,,,0.00,0,Wunderground v.1.15,2013-10-03 10:10:00,
2013-10-03 04:20:00,46.5,35.4,29.71,SW,216,0.0,-999.0,65,0.00,,,0.00,0,Wunderground v.1.15,2013-10-03 10:20:00,
2013-10-03 04:30:00,46.5,35.4,29.71,SW,216,1.0,-999.0,65,0.00,,,0.00,0,Wunderground v.1.15,2013-10-03 10:30:00,
2013-10-03 04:40:00,46.5,35.0,29.71,SW,216,0.0,-999.0,64,0.00,,,0.00,0,Wunderground v.1.15,2013-10-03 10:40:00,
2013-10-03 04:50:00,45.8,34.3,29.71,SW,217,0.0,-999.0,64,0.00,,,0.00,0,Wunderground v.1.15,2013-10-03 10:50:00,
2013-10-03 04:55:00,45.6,34.1,29.71,SW,217,0.0,-999.0,64,0.00,,,0.00,0,Wunderground v.1.15,2013-10-03 10:55:00,
2013-10-03 05:05:00,45.3,34.2,29.70,SW,217,0.0,-999.0,65,0.00,,,0.00,0,Wunderground v.1.15,2013-10-03 11:05:00,
2013-10-03 05:15:00,44.9,33.8,29.70,SW,217,0.0,-999.0,65,0.00,,,0.00,0,Wunderground v.1.15,2013-10-03 11:15:00,
2013-10-03 05:25:00,44.7,34.0,29.70,SW,216,0.0,-999.0,66,0.00,,,0.00,0,Wunderground v.1.15,2013-10-03 11:25:00,
2013-10-03 05:35:00,44.6,34.3,29.70,SW,217,0.0,-999.0,67,0.00,,,0.00,0,Wunderground v.1.15,2013-10-03 11:35:00,
2013-10-03 05:45:00,44.7,34.8,29.70,SW,216,0.0,-999.0,68,0.00,,,0.00,0,Wunderground v.1.15,2013-10-03 11:45:00,
2013-10-03 05:50:00,44.5,34.2,29.70,SW,216,0.0,-999.0,67,0.00,,,0.00,0,Wunderground v.1.15,2013-10-03 11:50:00,
2013-10-03 06:00:00,44.3,34.4,29.70,SW,216,0.0,-999.0,68,0.00,,,0.00,0,Wunderground v.1.15,2013-10-03 12:00:00,
2013-10-03 06:10:00,43.8,33.6,29.70,SW,216,0.0,-999.0,67,0.00,,,0.00,0,Wunderground v.1.15,2013-10-03 12:10:00,
2013-10-03 06:20:00,43.4,33.9,29.70,SW,216,0.0,-999.0,69,0.00,,,0.00,0,Wunderground v.1.15,2013-10-03 12:20:00,
2013-10-03 06:30:00,43.3,33.8,29.70,SW,216,0.0,-999.0,69,0.00,,,0.00,0,Wunderground v.1.15,2013-10-03 12:30:00,
2013-10-03 06:35:00,43.4,34.3,29.70,SW,216,0.0,-999.0,70,0.00,,,0.00,0,Wunderground v.1.15,2013-10-03 12:35:00,
2013-10-03 06:45:00,43.0,33.5,29.70,SW,217,0.0,-999.0,69,0.00,,,0.00,0,Wunderground v.1.15,2013-10-03 12:45:00,
2013-10-03 06:55:00,42.9,33.8,29.70,SW,217,0.0,-999.0,70,0.00,,,0.00,0,Wunderground v.1.15,2013-10-03 12:55:00,
2013-10-03 07:00:00,42.6,33.9,29.70,SW,216,0.0,-999.0,71,0.00,,,0.00,0,Wunderground v.1.15,2013-10-03 13:00:00,
2013-10-03 07:05:00,42.7,34.3,29.70,SW,216,0.0,-999.0,72,0.00,,,0.00,0,Wunderground v.1.15,2013-10-03 13:05:00,
2013-10-03 07:15:00,42.4,34.0,29.69,SW,217,0.0,-999.0,72,0.00,,,0.00,5,Wunderground v.1.15,2013-10-03 13:15:00,
2013-10-03 07:25:00,42.2,33.8,29.69,SW,217,0.0,-999.0,72,0.00,,,0.00,9,Wunderground v.1.15,2013-10-03 13:25:00,
2013-10-03 07:30:00,42.0,33.6,29.69,SW,216,0.0,-999.0,72,0.00,,,0.00,12,Wunderground v.1.15,2013-10-03 13:30:00,
2013-10-03 07:40:00,41.9,33.5,29.69,SW,217,0.0,-999.0,72,0.00,,,0.00,16,Wunderground v.1.15,2013-10-03 13:40:00,
2013-10-03 07:50:00,42.0,33.6,29.69,SW,217,0.0,-999.0,72,0.00,,,0.00,28,Wunderground v.1.15,2013-10-03 13:50:00,
2013-10-03 07:55:00,42.4,34.0,29.69,SW,216,0.0,-999.0,72,0.00,,,0.00,33,Wunderground v.1.15,2013-10-03 13:55:00,
2013-10-03 08:05:00,42.7,33.6,29.69,SW,216,0.0,-999.0,70,0.00,,,0.00,37,Wunderground v.1.15,2013-10-03 14:05:00,
2013-10-03 08:15:00,43.0,33.5,29.69,SW,217,0.0,-999.0,69,0.00,,,0.00,44,Wunderground v.1.15,2013-10-03 14:15:00,
2013-10-03 08:25:00,43.7,34.2,29.68,SW,217,0.0,-999.0,69,0.00,,,0.00,65,Wunderground v.1.15,2013-10-03 14:25:00,
2013-10-03 08:35:00,44.4,34.9,29.68,SW,217,0.0,-999.0,69,0.00,,,0.00,72,Wunderground v.1.15,2013-10-03 14:35:00,
2013-10-03 08:45:00,45.2,35.3,29.68,SW,218,0.0,-999.0,68,0.00,,,0.00,105,Wunderground v.1.15,2013-10-03 14:45:00,
2013-10-03 08:55:00,46.1,35.0,29.67,SW,216,0.0,-999.0,65,0.00,,,0.00,146,Wunderground v.1.15,2013-10-03 14:55:00,
2013-10-03 09:00:00,46.3,34.8,29.67,SW,216,0.0,-999.0,64,0.00,,,0.00,165,Wunderground v.1.15,2013-10-03 15:00:00,
2013-10-03 09:10:00,46.9,33.7,29.67,SW,217,0.0,-999.0,60,0.00,,,0.00,181,Wunderground v.1.15,2013-10-03 15:10:00,
2013-10-03 09:15:00,48.2,35.0,29.66,SW,218,0.0,-999.0,60,0.00,,,0.00,163,Wunderground v.1.15,2013-10-03 15:15:00,
2013-10-03 09:25:00,49.2,34.6,29.66,SW,217,0.0,-999.0,57,0.00,,,0.00,104,Wunderground v.1.15,2013-10-03 15:25:00,
2013-10-03 09:30:00,49.5,34.4,29.66,SW,217,0.0,-999.0,56,0.00,,,0.00,105,Wunderground v.1.15,2013-10-03 15:30:00,
2013-10-03 09:40:00,50.1,37.2,29.66,SW,217,0.0,-999.0,61,0.00,,,0.00,227,Wunderground v.1.15,2013-10-03 15:40:00,
2013-10-03 09:50:00,50.4,37.0,29.65,SW,218,0.0,-999.0,60,0.00,,,0.00,292,Wunderground v.1.15,2013-10-03 15:50:00,
2013-10-03 10:00:00,52.2,36.5,29.65,East,94,1.0,-999.0,55,0.00,,,0.00,475,Wunderground v.1.15,2013-10-03 16:00:00,
2013-10-03 10:05:00,52.8,36.6,29.65,SW,228,1.0,-999.0,54,0.00,,,0.00,513,Wunderground v.1.15,2013-10-03 16:05:00,
2013-10-03 10:15:00,54.6,34.8,29.64,ENE,66,0.0,-999.0,47,0.00,,,0.00,515,Wunderground v.1.15,2013-10-03 16:15:00,
2013-10-03 10:25:00,56.9,35.8,29.63,East,94,0.0,-999.0,45,0.00,,,0.00,592,Wunderground v.1.15,2013-10-03 16:25:00,
2013-10-03 10:35:00,58.6,36.2,29.61,East,98,0.0,-999.0,43,0.00,,,0.00,649,Wunderground v.1.15,2013-10-03 16:35:00,
2013-10-03 10:45:00,60.3,37.7,29.61,SW,225,2.0,-999.0,43,0.00,,,0.00,142,Wunderground v.1.15,2013-10-03 16:45:00,
2013-10-03 10:55:00,60.4,37.2,29.61,SSW,197,2.0,-999.0,42,0.00,,,0.00,195,Wunderground v.1.15,2013-10-03 16:55:00,
2013-10-03 11:00:00,60.8,39.3,29.61,SW,218,1.0,-999.0,45,0.00,,,0.00,181,Wunderground v.1.15,2013-10-03 17:00:00,
2013-10-03 11:05:00,61.3,38.0,29.60,South,172,1.0,-999.0,42,0.00,,,0.00,137,Wunderground v.1.15,2013-10-03 17:05:00,
2013-10-03 11:10:00,62.1,38.7,29.59,WNW,290,1.0,-999.0,42,0.00,,,0.00,195,Wunderground v.1.15,2013-10-03 17:10:00,
2013-10-03 11:20:00,64.3,36.8,29.59,SW,224,2.0,-999.0,36,0.00,,,0.00,125,Wunderground v.1.15,2013-10-03 17:20:00,
2013-10-03 11:25:00,64.6,38.4,29.59,SW,226,4.0,-999.0,38,0.00,,,0.00,134,Wunderground v.1.15,2013-10-03 17:25:00,
2013-10-03 11:40:00,67.4,31.3,29.57,South,183,4.0,-999.0,26,0.00,,,0.00,237,Wunderground v.1.15,2013-10-03 17:40:00,
2013-10-03 11:50:00,69.6,35.9,29.58,SW,223,5.0,-999.0,29,0.00,,,0.00,220,Wunderground v.1.15,2013-10-03 17:50:00,
2013-10-03 11:55:00,68.9,32.6,29.57,SSE,161,7.0,-999.0,26,0.00,,,0.00,262,Wunderground v.1.15,2013-10-03 17:55:00,
2013-10-03 12:10:00,67.7,33.4,29.57,SSW,195,7.0,-999.0,28,0.00,,,0.00,875,Wunderground v.1.15,2013-10-03 18:10:00,
2013-10-03 12:20:00,68.3,34.8,29.56,SSW,204,6.0,-999.0,29,0.00,,,0.00,244,Wunderground v.1.15,2013-10-03 18:20:00,
2013-10-03 12:30:00,68.4,32.1,29.56,SSW,209,7.0,-999.0,26,0.00,,,0.00,923,Wunderground v.1.15,2013-10-03 18:30:00,
2013-10-03 12:40:00,69.3,31.9,29.55,South,182,2.0,-999.0,25,0.00,,,0.00,817,Wunderground v.1.15,2013-10-03 18:40:00,
2013-10-03 12:50:00,70.6,29.9,29.54,SW,216,3.0,-999.0,22,0.00,,,0.00,939,Wunderground v.1.15,2013-10-03 18:50:00,
2013-10-03 12:55:00,70.7,31.1,29.54,SSW,206,4.0,-999.0,23,0.00,,,0.00,881,Wunderground v.1.15,2013-10-03 18:55:00,
2013-10-03 13:05:00,71.1,30.3,29.53,SW,231,5.0,-999.0,22,0.00,,,0.00,772,Wunderground v.1.15,2013-10-03 19:05:00,
2013-10-03 13:15:00,71.1,31.4,29.52,WSW,249,5.0,-999.0,23,0.00,,,0.00,744,Wunderground v.1.15,2013-10-03 19:15:00,
2013-10-03 13:25:00,71.6,31.8,29.51,SSE,156,4.0,-999.0,23,0.00,,,0.00,872,Wunderground v.1.15,2013-10-03 19:25:00,
2013-10-03 13:30:00,71.5,29.5,29.51,SW,226,5.0,-999.0,21,0.00,,,0.00,898,Wunderground v.1.15,2013-10-03 19:30:00,
2013-10-03 13:40:00,71.7,29.7,29.51,SW,214,5.0,-999.0,21,0.00,,,0.00,842,Wunderground v.1.15,2013-10-03 19:40:00,
2013-10-03 13:50:00,72.0,33.2,29.50,NW,305,5.0,-999.0,24,0.00,,,0.00,926,Wunderground v.1.15,2013-10-03 19:50:00,
2013-10-03 13:55:00,71.9,31.0,29.50,SW,231,4.0,-999.0,22,0.00,,,0.00,875,Wunderground v.1.15,2013-10-03 19:55:00,
2013-10-03 14:05:00,72.7,29.3,29.49,SSW,209,4.0,-999.0,20,0.00,,,0.00,788,Wunderground v.1.15,2013-10-03 20:05:00,
2013-10-03 14:10:00,72.6,27.9,29.49,SW,217,4.0,-999.0,19,0.00,,,0.00,824,Wunderground v.1.15,2013-10-03 20:10:00,
2013-10-03 14:20:00,71.4,29.4,29.49,SW,228,9.0,-999.0,21,0.00,,,0.00,508,Wunderground v.1.15,2013-10-03 20:20:00,
2013-10-03 14:25:00,70.7,30.0,29.49,South,174,10.0,-999.0,22,0.00,,,0.00,323,Wunderground v.1.15,2013-10-03 20:25:00,
2013-10-03 14:35:00,70.6,29.9,29.49,SW,220,7.0,-999.0,22,0.00,,,0.00,272,Wunderground v.1.15,2013-10-03 20:35:00,
2013-10-03 14:40:00,70.1,29.5,29.49,South,183,10.0,-999.0,22,0.00,,,0.00,279,Wunderground v.1.15,2013-10-03 20:40:00,
2013-10-03 14:45:00,70.4,30.8,29.49,SW,222,11.0,-999.0,23,0.00,,,0.00,299,Wunderground v.1.15,2013-10-03 20:45:00,
2013-10-03 14:55:00,70.7,27.6,29.49,SSE,167,10.0,-999.0,20,0.00,,,0.00,383,Wunderground v.1.15,2013-10-03 20:55:00,
2013-10-03 15:10:00,70.6,27.5,29.48,SW,228,7.0,-999.0,20,0.00,,,0.00,309,Wunderground v.1.15,2013-10-03 21:10:00,
2013-10-03 15:20:00,71.3,26.9,29.49,WSW,242,6.0,-999.0,19,0.00,,,0.00,336,Wunderground v.1.15,2013-10-03 21:20:00,
2013-10-03 15:25:00,71.8,26.0,29.49,South,177,5.0,-999.0,18,0.00,,,0.00,710,Wunderground v.1.15,2013-10-03 21:25:00,
2013-10-03 15:30:00,72.2,27.6,29.49,SW,225,7.0,-999.0,19,0.00,,,0.00,649,Wunderground v.1.15,2013-10-03 21:30:00,
2013-10-03 15:40:00,72.2,26.3,29.49,SW,216,7.0,-999.0,18,0.00,,,0.00,631,Wunderground v.1.15,2013-10-03 21:40:00,
2013-10-03 15:50:00,71.6,29.6,29.48,WSW,251,9.0,-999.0,21,0.00,,,0.00,132,Wunderground v.1.15,2013-10-03 21:50:00,
2013-10-03 16:00:00,71.7,28.5,29.49,SW,234,6.0,-999.0,20,0.00,,,0.00,610,Wunderground v.1.15,2013-10-03 22:00:00,
2013-10-03 16:10:00,71.2,29.2,29.47,SW,222,7.0,-999.0,21,0.00,,,0.00,272,Wunderground v.1.15,2013-10-03 22:10:00,
2013-10-03 16:15:00,70.6,29.9,29.48,SW,218,6.0,-999.0,22,0.00,,,0.00,264,Wunderground v.1.15,2013-10-03 22:15:00,
2013-10-03 16:25:00,71.2,29.2,29.48,SW,231,6.0,-999.0,21,0.00,,,0.00,613,Wunderground v.1.15,2013-10-03 22:25:00,
2013-10-03 16:35:00,71.4,29.4,29.48,SSW,194,7.0,-999.0,21,0.00,,,0.00,482,Wunderground v.1.15,2013-10-03 22:35:00,
2013-10-03 16:40:00,70.7,28.8,29.49,SSE,166,6.0,-999.0,21,0.00,,,0.00,149,Wunderground v.1.15,2013-10-03 22:40:00,
2013-10-03 16:50:00,69.6,30.1,29.49,WSW,244,7.0,-999.0,23,0.00,,,0.00,116,Wunderground v.1.15,2013-10-03 22:50:00,
2013-10-03 17:00:00,69.3,30.9,29.49,WSW,241,5.0,-999.0,24,0.00,,,0.00,123,Wunderground v.1.15,2013-10-03 23:00:00,
2013-10-03 17:10:00,68.8,31.5,29.48,SW,218,6.0,-999.0,25,0.00,,,0.00,116,Wunderground v.1.15,2013-10-03 23:10:00,
2013-10-03 17:20:00,68.5,32.2,29.48,SW,219,6.0,-999.0,26,0.00,,,0.00,49,Wunderground v.1.15,2013-10-03 23:20:00,
2013-10-03 17:30:00,68.3,31.1,29.49,SW,233,9.0,-999.0,25,0.00,,,0.00,30,Wunderground v.1.15,2013-10-03 23:30:00,
2013-10-03 17:40:00,66.3,32.2,29.50,SSW,206,10.0,-999.0,28,0.00,,,0.00,93,Wunderground v.1.15,2013-10-03 23:40:00,
2013-10-03 17:45:00,65.5,32.4,29.50,SW,234,7.0,-999.0,29,0.00,,,0.00,72,Wunderground v.1.15,2013-10-03 23:45:00,
2013-10-03 17:55:00,65.2,32.1,29.54,SW,230,7.0,-999.0,29,0.00,,,0.00,28,Wunderground v.1.15,2013-10-03 23:55:00,
2013-10-03 18:00:00,64.7,34.1,29.53,SW,232,10.0,-999.0,32,0.00,,,0.00,18,Wunderground v.1.15,2013-10-04 00:00:00,
2013-10-03 18:10:00,61.8,35.9,29.55,SW,230,10.0,-999.0,38,0.00,,,0.00,25,Wunderground v.1.15,2013-10-04 00:10:00,
2013-10-03 18:15:00,58.6,36.2,29.55,West,272,12.0,-999.0,43,0.00,,,0.00,11,Wunderground v.1.15,2013-10-04 00:15:00,
2013-10-03 18:20:00,57.5,36.3,29.55,SW,214,15.0,-999.0,45,0.00,,,0.00,12,Wunderground v.1.15,2013-10-04 00:20:00,
2013-10-03 18:30:00,56.7,37.2,29.56,SSW,206,10.0,-999.0,48,0.00,,,0.00,5,Wunderground v.1.15,2013-10-04 00:30:00,
2013-10-03 18:35:00,56.7,39.3,29.55,SW,222,10.0,-999.0,52,0.00,,,0.00,7,Wunderground v.1.15,2013-10-04 00:35:00,
2013-10-03 18:45:00,54.9,38.6,29.56,WNW,301,5.0,-999.0,54,0.00,,,0.00,0,Wunderground v.1.15,2013-10-04 00:45:00,
2013-10-03 18:55:00,53.0,38.2,29.58,East,87,3.0,-999.0,57,0.00,,,0.00,0,Wunderground v.1.15,2013-10-04 00:55:00,
2013-10-03 19:05:00,51.9,39.7,29.58,WNW,289,4.0,-999.0,63,0.00,,,0.00,0,Wunderground v.1.15,2013-10-04 01:05:00,
2013-10-03 19:15:00,50.3,39.8,29.59,West,259,2.0,-999.0,67,0.00,,,0.00,0,Wunderground v.1.15,2013-10-04 01:15:00,
2013-10-03 19:20:00,50.0,40.2,29.60,NNE,25,1.0,-999.0,69,0.00,,,0.00,0,Wunderground v.1.15,2013-10-04 01:20:00,
2013-10-03 19:30:00,48.4,39.1,29.61,NW,318,5.0,-999.0,70,0.00,,,0.00,0,Wunderground v.1.15,2013-10-04 01:30:00,
2013-10-03 19:35:00,48.2,39.6,29.61,East,81,4.0,-999.0,72,0.00,,,0.00,0,Wunderground v.1.15,2013-10-04 01:35:00,
2013-10-03 19:45:00,46.7,39.5,29.62,NNE,30,4.0,-999.0,76,0.14,,,0.02,0,Wunderground v.1.15,2013-10-04 01:45:00,
2013-10-03 19:55:00,45.3,38.8,29.62,North,354,6.0,-999.0,78,0.11,,,0.04,0,Wunderground v.1.15,2013-10-04 01:55:00,
2013-10-03 20:05:00,44.4,38.6,29.64,NE,55,5.0,-999.0,80,0.04,,,0.04,0,Wunderground v.1.15,2013-10-04 02:05:00,
2013-10-03 20:15:00,43.6,37.5,29.66,SSE,149,4.0,-999.0,79,0.00,,,0.04,0,Wunderground v.1.15,2013-10-04 02:15:00,
2013-10-03 20:25:00,43.2,37.4,29.67,SSE,153,2.0,-999.0,80,0.00,,,0.05,0,Wunderground v.1.15,2013-10-04 02:25:00,
2013-10-03 20:30:00,42.7,37.3,29.69,NNW,330,1.0,-999.0,81,0.00,,,0.05,0,Wunderground v.1.15,2013-10-04 02:30:00,
2013-10-03 20:40:00,42.2,36.8,29.69,NNE,12,1.0,-999.0,81,0.00,,,0.05,0,Wunderground v.1.15,2013-10-04 02:40:00,
2013-10-03 20:50:00,41.7,36.9,29.70,NNW,330,1.0,-999.0,83,0.00,,,0.05,0,Wunderground v.1.15,2013-10-04 02:50:00,
2013-10-03 20:55:00,41.6,36.8,29.70,SW,232,0.0,-999.0,83,0.13,,,0.07,0,Wunderground v.1.15,2013-10-04 02:55:00,
2013-10-03 21:00:00,41.2,36.4,29.70,SSW,207,1.0,-999.0,83,0.12,,,0.08,0,Wunderground v.1.15,2013-10-04 03:00:00,
2013-10-03 21:10:00,40.4,35.9,29.71,SSW,199,1.0,-999.0,84,0.06,,,0.08,0,Wunderground v.1.15,2013-10-04 03:10:00,
2013-10-03 21:15:00,40.1,35.7,29.71,West,274,1.0,-999.0,84,0.04,,,0.08,0,Wunderground v.1.15,2013-10-04 03:15:00,
2013-10-03 21:25:00,39.7,35.6,29.71,SSE,157,0.0,-999.0,85,0.13,,,0.11,0,Wunderground v.1.15,2013-10-04 03:25:00,
2013-10-03 21:35:00,39.1,35.3,29.73,SW,235,1.0,-999.0,86,0.06,,,0.11,0,Wunderground v.1.15,2013-10-04 03:35:00,
2013-10-03 21:40:00,39.0,35.2,29.73,SW,223,1.0,-999.0,86,0.06,,,0.12,0,Wunderground v.1.15,2013-10-04 03:40:00,
2013-10-03 21:45:00,38.8,35.3,29.74,SW,222,1.0,-999.0,87,0.06,,,0.12,0,Wunderground v.1.15,2013-10-04 03:45:00,
2013-10-03 21:50:00,38.5,35.0,29.74,NNE,25,1.0,-999.0,87,0.05,,,0.13,0,Wunderground v.1.15,2013-10-04 03:50:00,
2013-10-03 21:55:00,38.0,34.5,29.74,SW,216,1.0,-999.0,87,0.05,,,0.13,0,Wunderground v.1.15,2013-10-04 03:55:00,
2013-10-03 22:40:00,37.9,35.2,29.76,North,350,1.0,-999.0,90,0.00,,,0.18,0,Wunderground v.1.15,2013-10-04 04:40:00,
2013-10-03 22:55:00,38.1,35.4,29.75,ENE,66,1.0,-999.0,90,0.07,,,0.20,0,Wunderground v.1.15,2013-10-04 04:55:00,
2013-10-03 23:00:00,38.3,35.6,29.75,ENE,64,1.0,-999.0,90,0.07,,,0.20,0,Wunderground v.1.15,2013-10-04 05:00:00,
2013-10-03 23:10:00,37.8,35.1,29.76,NW,318,2.0,-999.0,90,0.00,,,0.20,0,Wunderground v.1.15,2013-10-04 05:10:00,
2013-10-03 23:30:00,37.6,34.9,29.78,NE,54,2.0,-999.0,90,0.00,,,0.21,0,Wunderground v.1.15,2013-10-04 05:30:00,
2013-10-03 23:40:00,37.3,34.4,29.78,NE,48,1.0,-999.0,89,0.00,,,0.21,0,Wunderground v.1.15,2013-10-04 05:40:00,
2013-10-03 23:45:00,37.2,34.3,29.79,NE,36,1.0,-999.0,89,0.04,,,0.22,0,Wunderground v.1.15,2013-10-04 05:45:00,
2013-10-03 23:50:00,37.0,34.3,29.78,ENE,58,1.0,-999.0,90,0.04,,,0.22,0,Wunderground v.1.15,2013-10-04 05:50:00,
2013-10-03 23:55:00,36.9,34.2,29.79,NE,37,1.0,-999.0,90,0.04,,,0.22,0,Wunderground v.1.15,2013-10-04 05:55:00,